sensor_id;sensor_type;location;lat;lon;timestamp;P1;durP1;ratioP1;P2;durP2;ratioP2
49824;SDS011;35714;55.708;37.478;2024-03-02T00:00:01;34.03;;;17.42;;
49824;SDS011;35714;55.708;37.478;2024-03-02T00:02:41;29.55;;;16.17;;
49824;SDS011;35714;55.708;37.478;2024-03-02T00:05:09;29.25;;;15.75;;
49824;SDS011;35714;55.708;37.478;2024-03-02T00:07:36;30.73;;;15.50;;
49824;SDS011;35714;55.708;37.478;2024-03-02T00:10:05;31.25;;;16.60;;
49824;SDS011;35714;55.708;37.478;2024-03-02T00:12:36;31.75;;;16.40;;
49824;SDS011;35714;55.708;37.478;2024-03-02T00:17:55;30.25;;;16.13;;
49824;SDS011;35714;55.708;37.478;2024-03-02T00:20:22;34.08;;;17.17;;
49824;SDS011;35714;55.708;37.478;2024-03-02T00:22:50;31.77;;;16.17;;
49824;SDS011;35714;55.708;37.478;2024-03-02T00:25:16;35.33;;;17.10;;
49824;SDS011;35714;55.708;37.478;2024-03-02T00:27:47;31.85;;;16.70;;
49824;SDS011;35714;55.708;37.478;2024-03-02T00:33:00;32.55;;;17.48;;
49824;SDS011;35714;55.708;37.478;2024-03-02T00:35:26;32.50;;;16.85;;
49824;SDS011;35714;55.708;37.478;2024-03-02T00:37:52;32.15;;;16.25;;
49824;SDS011;35714;55.708;37.478;2024-03-02T00:40:17;30.65;;;15.98;;
49824;SDS011;35714;55.708;37.478;2024-03-02T00:42:44;31.42;;;16.50;;
49824;SDS011;35714;55.708;37.478;2024-03-02T00:45:09;35.88;;;16.92;;
49824;SDS011;35714;55.708;37.478;2024-03-02T00:47:38;32.70;;;17.10;;
49824;SDS011;35714;55.708;37.478;2024-03-02T00:50:05;35.92;;;16.65;;
49824;SDS011;35714;55.708;37.478;2024-03-02T00:52:31;34.75;;;17.45;;
49824;SDS011;35714;55.708;37.478;2024-03-02T00:54:58;30.42;;;17.55;;
49824;SDS011;35714;55.708;37.478;2024-03-02T00:57:24;32.38;;;16.23;;
49824;SDS011;35714;55.708;37.478;2024-03-02T00:59:51;31.23;;;17.35;;
49824;SDS011;35714;55.708;37.478;2024-03-02T01:02:17;32.67;;;16.40;;
49824;SDS011;35714;55.708;37.478;2024-03-02T01:04:45;32.63;;;16.80;;
49824;SDS011;35714;55.708;37.478;2024-03-02T01:07:10;30.77;;;16.15;;
49824;SDS011;35714;55.708;37.478;2024-03-02T01:09:36;34.08;;;17.73;;
49824;SDS011;35714;55.708;37.478;2024-03-02T01:12:02;34.42;;;16.92;;
49824;SDS011;35714;55.708;37.478;2024-03-02T01:14:28;35.35;;;17.70;;
49824;SDS011;35714;55.708;37.478;2024-03-02T01:16:53;33.97;;;16.67;;
49824;SDS011;35714;55.708;37.478;2024-03-02T01:19:19;33.72;;;17.17;;
49824;SDS011;35714;55.708;37.478;2024-03-02T01:21:44;29.73;;;16.27;;
49824;SDS011;35714;55.708;37.478;2024-03-02T01:24:10;35.58;;;17.67;;
49824;SDS011;35714;55.708;37.478;2024-03-02T01:26:36;29.80;;;16.40;;
49824;SDS011;35714;55.708;37.478;2024-03-02T01:29:01;29.35;;;16.77;;
49824;SDS011;35714;55.708;37.478;2024-03-02T01:31:27;33.85;;;17.13;;
49824;SDS011;35714;55.708;37.478;2024-03-02T01:33:53;34.45;;;16.23;;
49824;SDS011;35714;55.708;37.478;2024-03-02T01:36:18;29.45;;;16.38;;
49824;SDS011;35714;55.708;37.478;2024-03-02T01:38:44;36.30;;;16.95;;
49824;SDS011;35714;55.708;37.478;2024-03-02T01:41:09;28.88;;;16.73;;
49824;SDS011;35714;55.708;37.478;2024-03-02T01:43:36;37.28;;;18.80;;
49824;SDS011;35714;55.708;37.478;2024-03-02T01:46:02;35.47;;;16.55;;
49824;SDS011;35714;55.708;37.478;2024-03-02T01:48:28;29.05;;;16.60;;
49824;SDS011;35714;55.708;37.478;2024-03-02T01:50:53;32.17;;;18.08;;
49824;SDS011;35714;55.708;37.478;2024-03-02T01:53:20;32.92;;;17.63;;
49824;SDS011;35714;55.708;37.478;2024-03-02T01:55:46;33.00;;;16.95;;
49824;SDS011;35714;55.708;37.478;2024-03-02T01:58:11;37.10;;;16.70;;
49824;SDS011;35714;55.708;37.478;2024-03-02T02:00:37;32.75;;;16.80;;
49824;SDS011;35714;55.708;37.478;2024-03-02T02:03:03;28.75;;;16.83;;
49824;SDS011;35714;55.708;37.478;2024-03-02T02:05:29;35.30;;;18.20;;
49824;SDS011;35714;55.708;37.478;2024-03-02T02:07:54;36.15;;;18.55;;
49824;SDS011;35714;55.708;37.478;2024-03-02T02:10:20;33.15;;;16.73;;
49824;SDS011;35714;55.708;37.478;2024-03-02T02:12:46;27.80;;;16.75;;
49824;SDS011;35714;55.708;37.478;2024-03-02T02:15:21;32.95;;;17.35;;
49824;SDS011;35714;55.708;37.478;2024-03-02T02:17:48;31.13;;;16.67;;
49824;SDS011;35714;55.708;37.478;2024-03-02T02:20:14;36.80;;;17.90;;
49824;SDS011;35714;55.708;37.478;2024-03-02T02:22:39;36.08;;;17.13;;
49824;SDS011;35714;55.708;37.478;2024-03-02T02:25:05;30.65;;;16.92;;
49824;SDS011;35714;55.708;37.478;2024-03-02T02:27:31;34.60;;;17.92;;
49824;SDS011;35714;55.708;37.478;2024-03-02T02:29:56;33.97;;;17.75;;
49824;SDS011;35714;55.708;37.478;2024-03-02T02:32:22;33.58;;;16.35;;
49824;SDS011;35714;55.708;37.478;2024-03-02T02:34:51;32.67;;;16.52;;
49824;SDS011;35714;55.708;37.478;2024-03-02T02:37:17;34.97;;;17.50;;
49824;SDS011;35714;55.708;37.478;2024-03-02T02:39:43;29.50;;;16.80;;
49824;SDS011;35714;55.708;37.478;2024-03-02T02:42:09;28.80;;;16.80;;
49824;SDS011;35714;55.708;37.478;2024-03-02T02:44:34;29.75;;;17.95;;
49824;SDS011;35714;55.708;37.478;2024-03-02T02:47:00;35.15;;;17.80;;
49824;SDS011;35714;55.708;37.478;2024-03-02T02:49:25;32.28;;;16.83;;
49824;SDS011;35714;55.708;37.478;2024-03-02T02:51:52;31.25;;;17.45;;
49824;SDS011;35714;55.708;37.478;2024-03-02T02:54:18;31.23;;;16.27;;
49824;SDS011;35714;55.708;37.478;2024-03-02T02:56:43;32.58;;;18.25;;
49824;SDS011;35714;55.708;37.478;2024-03-02T02:59:09;41.90;;;18.00;;
49824;SDS011;35714;55.708;37.478;2024-03-02T03:01:34;31.73;;;16.13;;
49824;SDS011;35714;55.708;37.478;2024-03-02T03:04:00;34.95;;;19.10;;
49824;SDS011;35714;55.708;37.478;2024-03-02T03:06:25;33.53;;;16.38;;
49824;SDS011;35714;55.708;37.478;2024-03-02T03:08:52;28.95;;;15.48;;
49824;SDS011;35714;55.708;37.478;2024-03-02T03:11:18;32.38;;;17.55;;
49824;SDS011;35714;55.708;37.478;2024-03-02T03:13:43;48.97;;;19.65;;
49824;SDS011;35714;55.708;37.478;2024-03-02T03:16:09;34.97;;;18.52;;
49824;SDS011;35714;55.708;37.478;2024-03-02T03:18:35;30.40;;;17.30;;
49824;SDS011;35714;55.708;37.478;2024-03-02T03:21:00;32.15;;;17.25;;
49824;SDS011;35714;55.708;37.478;2024-03-02T03:23:26;36.05;;;17.55;;
49824;SDS011;35714;55.708;37.478;2024-03-02T03:25:52;35.22;;;18.55;;
49824;SDS011;35714;55.708;37.478;2024-03-02T03:28:17;35.85;;;17.92;;
49824;SDS011;35714;55.708;37.478;2024-03-02T03:30:43;32.47;;;18.38;;
49824;SDS011;35714;55.708;37.478;2024-03-02T03:33:08;30.90;;;17.83;;
49824;SDS011;35714;55.708;37.478;2024-03-02T03:35:34;33.63;;;18.65;;
49824;SDS011;35714;55.708;37.478;2024-03-02T03:38:00;36.25;;;19.27;;
49824;SDS011;35714;55.708;37.478;2024-03-02T03:40:27;36.00;;;17.13;;
49824;SDS011;35714;55.708;37.478;2024-03-02T03:42:53;32.63;;;18.02;;
49824;SDS011;35714;55.708;37.478;2024-03-02T03:45:19;38.75;;;18.70;;
49824;SDS011;35714;55.708;37.478;2024-03-02T03:47:45;31.00;;;17.02;;
49824;SDS011;35714;55.708;37.478;2024-03-02T03:50:11;45.30;;;19.65;;
49824;SDS011;35714;55.708;37.478;2024-03-02T03:52:37;30.70;;;17.92;;
49824;SDS011;35714;55.708;37.478;2024-03-02T03:55:03;34.78;;;18.73;;
49824;SDS011;35714;55.708;37.478;2024-03-02T03:57:30;35.70;;;19.88;;
49824;SDS011;35714;55.708;37.478;2024-03-02T03:59:56;30.70;;;18.33;;
49824;SDS011;35714;55.708;37.478;2024-03-02T04:02:21;36.33;;;19.35;;
49824;SDS011;35714;55.708;37.478;2024-03-02T04:04:47;35.78;;;19.05;;
49824;SDS011;35714;55.708;37.478;2024-03-02T04:07:12;32.55;;;18.75;;
49824;SDS011;35714;55.708;37.478;2024-03-02T04:09:38;31.30;;;17.48;;
49824;SDS011;35714;55.708;37.478;2024-03-02T04:12:04;35.38;;;18.65;;
49824;SDS011;35714;55.708;37.478;2024-03-02T04:14:29;39.33;;;18.98;;
49824;SDS011;35714;55.708;37.478;2024-03-02T04:16:55;29.63;;;17.27;;
49824;SDS011;35714;55.708;37.478;2024-03-02T04:19:20;35.13;;;17.95;;
49824;SDS011;35714;55.708;37.478;2024-03-02T04:21:46;34.30;;;18.02;;
49824;SDS011;35714;55.708;37.478;2024-03-02T04:24:12;33.67;;;17.83;;
49824;SDS011;35714;55.708;37.478;2024-03-02T04:26:37;29.30;;;17.83;;
49824;SDS011;35714;55.708;37.478;2024-03-02T04:29:03;38.90;;;17.45;;
49824;SDS011;35714;55.708;37.478;2024-03-02T04:31:28;29.80;;;17.58;;
49824;SDS011;35714;55.708;37.478;2024-03-02T04:33:54;31.85;;;17.88;;
49824;SDS011;35714;55.708;37.478;2024-03-02T04:36:20;34.70;;;18.55;;
49824;SDS011;35714;55.708;37.478;2024-03-02T04:38:46;33.95;;;19.25;;
49824;SDS011;35714;55.708;37.478;2024-03-02T04:41:11;34.65;;;19.73;;
49824;SDS011;35714;55.708;37.478;2024-03-02T04:43:37;34.40;;;19.58;;
49824;SDS011;35714;55.708;37.478;2024-03-02T04:46:03;36.55;;;18.05;;
49824;SDS011;35714;55.708;37.478;2024-03-02T04:48:28;36.42;;;18.77;;
49824;SDS011;35714;55.708;37.478;2024-03-02T04:50:54;33.50;;;17.92;;
49824;SDS011;35714;55.708;37.478;2024-03-02T04:53:20;30.30;;;17.48;;
49824;SDS011;35714;55.708;37.478;2024-03-02T04:55:45;35.38;;;18.15;;
49824;SDS011;35714;55.708;37.478;2024-03-02T04:58:31;32.40;;;17.98;;
49824;SDS011;35714;55.708;37.478;2024-03-02T05:00:56;31.80;;;18.95;;
49824;SDS011;35714;55.708;37.478;2024-03-02T05:03:22;36.17;;;20.42;;
49824;SDS011;35714;55.708;37.478;2024-03-02T05:05:47;35.47;;;19.73;;
49824;SDS011;35714;55.708;37.478;2024-03-02T05:08:13;39.35;;;19.65;;
49824;SDS011;35714;55.708;37.478;2024-03-02T05:10:38;40.88;;;21.70;;
49824;SDS011;35714;55.708;37.478;2024-03-02T05:13:04;41.03;;;20.63;;
49824;SDS011;35714;55.708;37.478;2024-03-02T05:15:30;36.17;;;19.58;;
49824;SDS011;35714;55.708;37.478;2024-03-02T05:17:55;40.28;;;21.77;;
49824;SDS011;35714;55.708;37.478;2024-03-02T05:20:22;41.70;;;21.90;;
49824;SDS011;35714;55.708;37.478;2024-03-02T05:22:47;39.72;;;20.90;;
49824;SDS011;35714;55.708;37.478;2024-03-02T05:25:14;52.70;;;22.92;;
49824;SDS011;35714;55.708;37.478;2024-03-02T05:27:40;42.38;;;21.98;;
49824;SDS011;35714;55.708;37.478;2024-03-02T05:30:06;42.75;;;20.45;;
49824;SDS011;35714;55.708;37.478;2024-03-02T05:32:33;44.80;;;21.27;;
49824;SDS011;35714;55.708;37.478;2024-03-02T05:34:59;36.38;;;20.25;;
49824;SDS011;35714;55.708;37.478;2024-03-02T05:37:24;39.88;;;21.33;;
49824;SDS011;35714;55.708;37.478;2024-03-02T05:39:50;42.50;;;20.70;;
49824;SDS011;35714;55.708;37.478;2024-03-02T05:42:15;37.90;;;21.27;;
49824;SDS011;35714;55.708;37.478;2024-03-02T05:44:42;42.95;;;21.30;;
49824;SDS011;35714;55.708;37.478;2024-03-02T05:47:07;39.45;;;23.27;;
49824;SDS011;35714;55.708;37.478;2024-03-02T05:49:36;40.25;;;22.40;;
49824;SDS011;35714;55.708;37.478;2024-03-02T05:52:01;38.45;;;22.42;;
49824;SDS011;35714;55.708;37.478;2024-03-02T05:54:28;43.75;;;22.90;;
49824;SDS011;35714;55.708;37.478;2024-03-02T05:56:53;38.90;;;22.05;;
49824;SDS011;35714;55.708;37.478;2024-03-02T05:59:19;36.35;;;21.52;;
49824;SDS011;35714;55.708;37.478;2024-03-02T06:01:45;48.65;;;23.30;;
49824;SDS011;35714;55.708;37.478;2024-03-02T06:04:17;39.95;;;23.33;;
49824;SDS011;35714;55.708;37.478;2024-03-02T06:06:43;37.17;;;21.38;;
49824;SDS011;35714;55.708;37.478;2024-03-02T06:09:09;41.88;;;23.15;;
49824;SDS011;35714;55.708;37.478;2024-03-02T06:11:37;42.92;;;24.40;;
49824;SDS011;35714;55.708;37.478;2024-03-02T06:14:04;43.97;;;25.77;;
49824;SDS011;35714;55.708;37.478;2024-03-02T06:16:30;45.58;;;24.80;;
49824;SDS011;35714;55.708;37.478;2024-03-02T06:18:56;44.30;;;24.85;;
49824;SDS011;35714;55.708;37.478;2024-03-02T06:21:23;47.63;;;26.23;;
49824;SDS011;35714;55.708;37.478;2024-03-02T06:23:49;43.40;;;25.50;;
49824;SDS011;35714;55.708;37.478;2024-03-02T06:26:15;46.03;;;27.02;;
49824;SDS011;35714;55.708;37.478;2024-03-02T06:28:40;45.50;;;24.77;;
49824;SDS011;35714;55.708;37.478;2024-03-02T06:31:06;48.97;;;25.63;;
49824;SDS011;35714;55.708;37.478;2024-03-02T06:33:32;42.10;;;25.05;;
49824;SDS011;35714;55.708;37.478;2024-03-02T06:35:57;43.08;;;25.55;;
49824;SDS011;35714;55.708;37.478;2024-03-02T06:38:23;42.85;;;25.85;;
49824;SDS011;35714;55.708;37.478;2024-03-02T06:40:49;41.38;;;24.52;;
49824;SDS011;35714;55.708;37.478;2024-03-02T06:43:15;47.58;;;24.23;;
49824;SDS011;35714;55.708;37.478;2024-03-02T06:45:40;45.13;;;25.52;;
49824;SDS011;35714;55.708;37.478;2024-03-02T06:48:06;39.22;;;24.88;;
49824;SDS011;35714;55.708;37.478;2024-03-02T06:50:32;46.40;;;26.30;;
49824;SDS011;35714;55.708;37.478;2024-03-02T06:52:58;46.47;;;24.45;;
49824;SDS011;35714;55.708;37.478;2024-03-02T06:55:23;46.50;;;25.10;;
49824;SDS011;35714;55.708;37.478;2024-03-02T06:57:49;42.33;;;24.67;;
49824;SDS011;35714;55.708;37.478;2024-03-02T07:00:16;45.70;;;25.17;;
49824;SDS011;35714;55.708;37.478;2024-03-02T07:02:43;45.95;;;25.80;;
49824;SDS011;35714;55.708;37.478;2024-03-02T07:05:09;44.70;;;26.85;;
49824;SDS011;35714;55.708;37.478;2024-03-02T07:07:36;47.55;;;27.80;;
49824;SDS011;35714;55.708;37.478;2024-03-02T07:10:05;53.15;;;29.23;;
49824;SDS011;35714;55.708;37.478;2024-03-02T07:12:32;45.22;;;28.48;;
49824;SDS011;35714;55.708;37.478;2024-03-02T07:14:58;51.60;;;30.73;;
49824;SDS011;35714;55.708;37.478;2024-03-02T07:17:31;54.35;;;30.25;;
49824;SDS011;35714;55.708;37.478;2024-03-02T07:19:57;54.95;;;34.05;;
49824;SDS011;35714;55.708;37.478;2024-03-02T07:22:23;55.13;;;32.45;;
49824;SDS011;35714;55.708;37.478;2024-03-02T07:24:49;58.08;;;34.30;;
49824;SDS011;35714;55.708;37.478;2024-03-02T07:27:15;51.53;;;31.85;;
49824;SDS011;35714;55.708;37.478;2024-03-02T07:29:42;54.30;;;31.13;;
49824;SDS011;35714;55.708;37.478;2024-03-02T07:32:08;53.13;;;30.70;;
49824;SDS011;35714;55.708;37.478;2024-03-02T07:34:35;50.65;;;32.33;;
49824;SDS011;35714;55.708;37.478;2024-03-02T07:37:02;54.70;;;34.95;;
49824;SDS011;35714;55.708;37.478;2024-03-02T07:39:29;54.85;;;34.53;;
49824;SDS011;35714;55.708;37.478;2024-03-02T07:41:55;58.20;;;36.17;;
49824;SDS011;35714;55.708;37.478;2024-03-02T07:44:21;64.82;;;37.72;;
49824;SDS011;35714;55.708;37.478;2024-03-02T07:46:48;61.35;;;37.40;;
49824;SDS011;35714;55.708;37.478;2024-03-02T07:49:17;65.85;;;41.00;;
49824;SDS011;35714;55.708;37.478;2024-03-02T07:51:45;73.10;;;40.97;;
49824;SDS011;35714;55.708;37.478;2024-03-02T07:54:10;67.65;;;41.47;;
49824;SDS011;35714;55.708;37.478;2024-03-02T07:56:36;64.65;;;42.40;;
49824;SDS011;35714;55.708;37.478;2024-03-02T07:59:02;76.07;;;42.95;;
49824;SDS011;35714;55.708;37.478;2024-03-02T08:01:29;64.22;;;41.58;;
49824;SDS011;35714;55.708;37.478;2024-03-02T08:03:56;68.47;;;45.05;;
49824;SDS011;35714;55.708;37.478;2024-03-02T08:06:28;63.53;;;41.60;;
49824;SDS011;35714;55.708;37.478;2024-03-02T08:08:55;67.38;;;40.97;;
49824;SDS011;35714;55.708;37.478;2024-03-02T08:11:21;66.35;;;40.28;;
49824;SDS011;35714;55.708;37.478;2024-03-02T08:13:47;53.70;;;37.78;;
49824;SDS011;35714;55.708;37.478;2024-03-02T08:16:14;59.70;;;39.42;;
49824;SDS011;35714;55.708;37.478;2024-03-02T08:18:47;55.83;;;37.15;;
49824;SDS011;35714;55.708;37.478;2024-03-02T08:21:13;59.90;;;38.00;;
49824;SDS011;35714;55.708;37.478;2024-03-02T08:23:39;55.10;;;35.78;;
49824;SDS011;35714;55.708;37.478;2024-03-02T08:26:07;55.85;;;36.47;;
49824;SDS011;35714;55.708;37.478;2024-03-02T08:28:33;56.60;;;40.33;;
49824;SDS011;35714;55.708;37.478;2024-03-02T08:31:01;57.85;;;36.25;;
49824;SDS011;35714;55.708;37.478;2024-03-02T08:33:27;52.35;;;34.13;;
49824;SDS011;35714;55.708;37.478;2024-03-02T08:35:53;50.65;;;32.75;;
49824;SDS011;35714;55.708;37.478;2024-03-02T08:38:22;49.95;;;35.45;;
49824;SDS011;35714;55.708;37.478;2024-03-02T08:40:48;49.63;;;35.30;;
49824;SDS011;35714;55.708;37.478;2024-03-02T08:43:15;51.70;;;34.65;;
49824;SDS011;35714;55.708;37.478;2024-03-02T08:45:41;49.38;;;32.08;;
49824;SDS011;35714;55.708;37.478;2024-03-02T08:48:07;49.78;;;31.13;;
49824;SDS011;35714;55.708;37.478;2024-03-02T08:50:36;45.72;;;31.35;;
49824;SDS011;35714;55.708;37.478;2024-03-02T08:53:05;48.13;;;32.00;;
49824;SDS011;35714;55.708;37.478;2024-03-02T08:55:31;41.90;;;29.90;;
49824;SDS011;35714;55.708;37.478;2024-03-02T08:57:57;43.40;;;31.02;;
49824;SDS011;35714;55.708;37.478;2024-03-02T09:00:23;46.90;;;31.50;;
49824;SDS011;35714;55.708;37.478;2024-03-02T09:02:48;43.30;;;30.38;;
49824;SDS011;35714;55.708;37.478;2024-03-02T09:05:14;42.67;;;28.33;;
49824;SDS011;35714;55.708;37.478;2024-03-02T09:07:40;37.50;;;28.23;;
49824;SDS011;35714;55.708;37.478;2024-03-02T09:10:06;42.50;;;28.88;;
49824;SDS011;35714;55.708;37.478;2024-03-02T09:12:33;41.38;;;28.17;;
49824;SDS011;35714;55.708;37.478;2024-03-02T09:15:02;41.47;;;27.67;;
49824;SDS011;35714;55.708;37.478;2024-03-02T09:17:29;40.42;;;27.58;;
49824;SDS011;35714;55.708;37.478;2024-03-02T09:19:55;42.70;;;27.85;;
49824;SDS011;35714;55.708;37.478;2024-03-02T09:22:21;41.30;;;28.00;;
49824;SDS011;35714;55.708;37.478;2024-03-02T09:24:47;41.22;;;27.92;;
49824;SDS011;35714;55.708;37.478;2024-03-02T09:27:12;48.28;;;30.60;;
49824;SDS011;35714;55.708;37.478;2024-03-02T09:29:38;42.30;;;29.33;;
49824;SDS011;35714;55.708;37.478;2024-03-02T09:32:05;43.63;;;29.17;;
49824;SDS011;35714;55.708;37.478;2024-03-02T09:34:31;40.10;;;26.48;;
49824;SDS011;35714;55.708;37.478;2024-03-02T09:36:57;36.35;;;23.25;;
49824;SDS011;35714;55.708;37.478;2024-03-02T09:39:23;37.65;;;23.42;;
49824;SDS011;35714;55.708;37.478;2024-03-02T09:41:50;36.45;;;24.33;;
49824;SDS011;35714;55.708;37.478;2024-03-02T09:44:16;36.88;;;23.30;;
49824;SDS011;35714;55.708;37.478;2024-03-02T09:46:43;35.47;;;23.70;;
49824;SDS011;35714;55.708;37.478;2024-03-02T09:49:12;37.17;;;23.52;;
49824;SDS011;35714;55.708;37.478;2024-03-02T09:51:38;38.10;;;22.52;;
49824;SDS011;35714;55.708;37.478;2024-03-02T09:54:04;47.42;;;26.42;;
49824;SDS011;35714;55.708;37.478;2024-03-02T09:56:32;40.70;;;24.08;;
49824;SDS011;35714;55.708;37.478;2024-03-02T09:58:58;39.65;;;25.23;;
49824;SDS011;35714;55.708;37.478;2024-03-02T10:01:24;38.42;;;24.35;;
49824;SDS011;35714;55.708;37.478;2024-03-02T10:03:50;37.38;;;23.30;;
49824;SDS011;35714;55.708;37.478;2024-03-02T10:08:49;44.88;;;27.42;;
49824;SDS011;35714;55.708;37.478;2024-03-02T10:14:12;37.53;;;24.65;;
49824;SDS011;35714;55.708;37.478;2024-03-02T10:16:39;39.72;;;24.63;;
49824;SDS011;35714;55.708;37.478;2024-03-02T10:21:44;43.97;;;25.65;;
49824;SDS011;35714;55.708;37.478;2024-03-02T10:24:13;47.50;;;26.10;;
49824;SDS011;35714;55.708;37.478;2024-03-02T10:26:39;48.28;;;26.58;;
49824;SDS011;35714;55.708;37.478;2024-03-02T10:29:04;42.45;;;25.25;;
49824;SDS011;35714;55.708;37.478;2024-03-02T10:31:30;41.33;;;23.08;;
49824;SDS011;35714;55.708;37.478;2024-03-02T10:33:57;36.17;;;22.25;;
49824;SDS011;35714;55.708;37.478;2024-03-02T10:36:23;39.95;;;23.60;;
49824;SDS011;35714;55.708;37.478;2024-03-02T10:38:51;38.55;;;21.58;;
49824;SDS011;35714;55.708;37.478;2024-03-02T10:41:23;37.60;;;21.15;;
49824;SDS011;35714;55.708;37.478;2024-03-02T10:43:51;40.25;;;22.17;;
49824;SDS011;35714;55.708;37.478;2024-03-02T10:46:20;42.15;;;22.25;;
49824;SDS011;35714;55.708;37.478;2024-03-02T10:48:47;38.40;;;20.55;;
49824;SDS011;35714;55.708;37.478;2024-03-02T10:51:14;33.20;;;20.40;;
49824;SDS011;35714;55.708;37.478;2024-03-02T10:53:40;40.35;;;21.38;;
49824;SDS011;35714;55.708;37.478;2024-03-02T10:56:07;34.92;;;20.00;;
49824;SDS011;35714;55.708;37.478;2024-03-02T10:58:34;36.03;;;20.60;;
49824;SDS011;35714;55.708;37.478;2024-03-02T11:01:03;35.25;;;20.30;;
49824;SDS011;35714;55.708;37.478;2024-03-02T11:03:33;38.30;;;19.92;;
49824;SDS011;35714;55.708;37.478;2024-03-02T11:06:00;37.90;;;21.17;;
49824;SDS011;35714;55.708;37.478;2024-03-02T11:08:32;35.92;;;21.70;;
49824;SDS011;35714;55.708;37.478;2024-03-02T11:11:06;36.17;;;21.00;;
49824;SDS011;35714;55.708;37.478;2024-03-02T11:13:35;35.67;;;20.80;;
49824;SDS011;35714;55.708;37.478;2024-03-02T11:16:09;36.92;;;21.42;;
49824;SDS011;35714;55.708;37.478;2024-03-02T11:18:41;34.13;;;21.17;;
49824;SDS011;35714;55.708;37.478;2024-03-02T11:21:08;37.30;;;21.90;;
49824;SDS011;35714;55.708;37.478;2024-03-02T11:23:34;40.30;;;22.38;;
49824;SDS011;35714;55.708;37.478;2024-03-02T11:26:21;36.72;;;21.95;;
49824;SDS011;35714;55.708;37.478;2024-03-02T11:28:50;34.72;;;21.58;;
49824;SDS011;35714;55.708;37.478;2024-03-02T11:31:16;34.67;;;22.08;;
49824;SDS011;35714;55.708;37.478;2024-03-02T11:33:42;32.75;;;21.13;;
49824;SDS011;35714;55.708;37.478;2024-03-02T11:36:08;34.35;;;19.20;;
49824;SDS011;35714;55.708;37.478;2024-03-02T11:38:35;37.42;;;21.67;;
49824;SDS011;35714;55.708;37.478;2024-03-02T11:41:02;35.20;;;21.80;;
49824;SDS011;35714;55.708;37.478;2024-03-02T11:43:32;35.90;;;20.65;;
49824;SDS011;35714;55.708;37.478;2024-03-02T11:45:59;31.23;;;18.23;;
49824;SDS011;35714;55.708;37.478;2024-03-02T11:48:25;32.35;;;18.48;;
49824;SDS011;35714;55.708;37.478;2024-03-02T11:50:51;32.20;;;19.90;;
49824;SDS011;35714;55.708;37.478;2024-03-02T11:53:18;28.42;;;19.30;;
49824;SDS011;35714;55.708;37.478;2024-03-02T11:55:45;29.92;;;18.92;;
49824;SDS011;35714;55.708;37.478;2024-03-02T11:58:14;33.28;;;20.17;;
49824;SDS011;35714;55.708;37.478;2024-03-02T12:00:46;29.83;;;18.92;;
49824;SDS011;35714;55.708;37.478;2024-03-02T12:03:12;32.00;;;20.27;;
49824;SDS011;35714;55.708;37.478;2024-03-02T12:05:42;32.78;;;20.48;;
49824;SDS011;35714;55.708;37.478;2024-03-02T12:08:07;27.90;;;19.13;;
49824;SDS011;35714;55.708;37.478;2024-03-02T12:10:34;27.83;;;19.45;;
49824;SDS011;35714;55.708;37.478;2024-03-02T12:13:02;28.20;;;19.95;;
49824;SDS011;35714;55.708;37.478;2024-03-02T12:15:32;29.42;;;20.48;;
49824;SDS011;35714;55.708;37.478;2024-03-02T12:18:00;30.55;;;21.15;;
49824;SDS011;35714;55.708;37.478;2024-03-02T12:20:27;28.25;;;19.67;;
49824;SDS011;35714;55.708;37.478;2024-03-02T12:22:55;26.50;;;17.42;;
49824;SDS011;35714;55.708;37.478;2024-03-02T12:25:23;27.23;;;18.02;;
49824;SDS011;35714;55.708;37.478;2024-03-02T12:27:59;27.33;;;17.23;;
49824;SDS011;35714;55.708;37.478;2024-03-02T12:30:27;22.48;;;16.67;;
49824;SDS011;35714;55.708;37.478;2024-03-02T12:32:57;24.75;;;17.10;;
49824;SDS011;35714;55.708;37.478;2024-03-02T12:35:24;23.95;;;15.68;;
49824;SDS011;35714;55.708;37.478;2024-03-02T12:37:51;24.10;;;16.10;;
49824;SDS011;35714;55.708;37.478;2024-03-02T12:40:18;24.60;;;16.48;;
49824;SDS011;35714;55.708;37.478;2024-03-02T12:42:46;30.88;;;16.63;;
49824;SDS011;35714;55.708;37.478;2024-03-02T12:45:14;23.80;;;15.95;;
49824;SDS011;35714;55.708;37.478;2024-03-02T12:47:41;25.23;;;17.40;;
49824;SDS011;35714;55.708;37.478;2024-03-02T12:50:07;21.00;;;15.43;;
49824;SDS011;35714;55.708;37.478;2024-03-02T12:52:34;24.10;;;15.65;;
49824;SDS011;35714;55.708;37.478;2024-03-02T12:55:01;21.33;;;15.68;;
49824;SDS011;35714;55.708;37.478;2024-03-02T12:57:29;23.70;;;15.38;;
49824;SDS011;35714;55.708;37.478;2024-03-02T12:59:58;23.08;;;15.85;;
49824;SDS011;35714;55.708;37.478;2024-03-02T13:02:28;25.23;;;14.10;;
49824;SDS011;35714;55.708;37.478;2024-03-02T13:04:55;21.75;;;14.25;;
49824;SDS011;35714;55.708;37.478;2024-03-02T13:07:23;17.67;;;12.27;;
49824;SDS011;35714;55.708;37.478;2024-03-02T13:09:50;23.52;;;13.65;;
49824;SDS011;35714;55.708;37.478;2024-03-02T13:12:16;20.83;;;13.02;;
49824;SDS011;35714;55.708;37.478;2024-03-02T13:14:48;22.58;;;12.98;;
49824;SDS011;35714;55.708;37.478;2024-03-02T13:17:15;18.80;;;12.45;;
49824;SDS011;35714;55.708;37.478;2024-03-02T13:19:52;17.70;;;12.25;;
49824;SDS011;35714;55.708;37.478;2024-03-02T13:22:21;19.35;;;12.85;;
49824;SDS011;35714;55.708;37.478;2024-03-02T13:24:47;23.42;;;11.93;;
49824;SDS011;35714;55.708;37.478;2024-03-02T13:27:13;20.15;;;11.63;;
49824;SDS011;35714;55.708;37.478;2024-03-02T13:29:39;21.10;;;14.27;;
49824;SDS011;35714;55.708;37.478;2024-03-02T13:32:05;25.90;;;13.43;;
49824;SDS011;35714;55.708;37.478;2024-03-02T13:34:31;18.80;;;11.60;;
49824;SDS011;35714;55.708;37.478;2024-03-02T13:36:57;17.65;;;11.48;;
49824;SDS011;35714;55.708;37.478;2024-03-02T13:39:25;23.02;;;14.20;;
49824;SDS011;35714;55.708;37.478;2024-03-02T13:41:51;23.33;;;13.15;;
49824;SDS011;35714;55.708;37.478;2024-03-02T13:44:18;22.13;;;13.93;;
49824;SDS011;35714;55.708;37.478;2024-03-02T13:46:44;19.77;;;12.85;;
49824;SDS011;35714;55.708;37.478;2024-03-02T13:49:11;28.73;;;15.68;;
49824;SDS011;35714;55.708;37.478;2024-03-02T13:51:37;27.88;;;15.18;;
49824;SDS011;35714;55.708;37.478;2024-03-02T13:54:03;38.55;;;21.73;;
49824;SDS011;35714;55.708;37.478;2024-03-02T13:56:29;31.10;;;16.42;;
49824;SDS011;35714;55.708;37.478;2024-03-02T13:58:55;25.10;;;15.15;;
49824;SDS011;35714;55.708;37.478;2024-03-02T14:01:21;26.98;;;15.45;;
49824;SDS011;35714;55.708;37.478;2024-03-02T14:03:47;26.40;;;15.10;;
49824;SDS011;35714;55.708;37.478;2024-03-02T14:06:12;31.20;;;16.10;;
49824;SDS011;35714;55.708;37.478;2024-03-02T14:08:38;27.80;;;14.70;;
49824;SDS011;35714;55.708;37.478;2024-03-02T14:11:04;29.20;;;16.35;;
49824;SDS011;35714;55.708;37.478;2024-03-02T14:13:30;29.05;;;16.73;;
49824;SDS011;35714;55.708;37.478;2024-03-02T14:15:55;26.90;;;15.50;;
49824;SDS011;35714;55.708;37.478;2024-03-02T14:18:21;27.13;;;15.35;;